createdAt,value
2018-07-19T00:00:12.267Z,15.00
2018-07-19T00:02:42.901Z,14.90
2018-07-19T00:05:13.188Z,15.00
2018-07-19T00:07:43.873Z,14.90
2018-07-19T00:10:14.854Z,15.00
2018-07-19T00:12:45.055Z,14.90
2018-07-19T00:15:15.690Z,14.80
2018-07-19T00:17:45.878Z,14.70
2018-07-19T00:20:16.039Z,14.70
2018-07-19T00:22:46.315Z,14.70
2018-07-19T00:25:16.526Z,14.70
2018-07-19T00:27:46.935Z,14.70
2018-07-19T00:30:17.152Z,14.60
2018-07-19T00:32:47.439Z,14.50
2018-07-19T00:35:17.698Z,14.50
2018-07-19T00:37:47.906Z,14.60
2018-07-19T00:40:18.192Z,14.60
2018-07-19T00:42:48.475Z,14.60
2018-07-19T00:45:18.996Z,14.60
2018-07-19T00:47:49.226Z,14.60
2018-07-19T00:50:19.719Z,14.60
2018-07-19T00:52:50.279Z,14.60
2018-07-19T00:55:20.251Z,14.70
2018-07-19T00:57:50.498Z,14.60
2018-07-19T01:00:20.818Z,14.60
2018-07-19T01:02:51.455Z,14.50
2018-07-19T01:05:21.763Z,14.50
2018-07-19T01:07:52.302Z,14.40
2018-07-19T01:10:22.889Z,14.30
2018-07-19T01:12:53.445Z,14.30
2018-07-19T01:15:24.000Z,14.20
2018-07-19T01:17:54.142Z,14.20
2018-07-19T01:20:24.495Z,14.20
2018-07-19T01:22:54.514Z,14.20
2018-07-19T01:25:24.926Z,14.20
2018-07-19T01:27:55.126Z,14.20
2018-07-19T01:30:25.389Z,14.10
2018-07-19T01:32:55.670Z,14.10
2018-07-19T01:35:25.999Z,14.10
2018-07-19T01:37:57.186Z,14.10
2018-07-19T01:40:27.678Z,14.10
2018-07-19T01:42:58.312Z,14.20
2018-07-19T01:45:28.486Z,14.20
2018-07-19T01:47:59.133Z,14.20
2018-07-19T01:50:29.354Z,14.20
2018-07-19T01:52:59.527Z,14.20
2018-07-19T01:55:31.338Z,14.20
2018-07-19T01:58:01.893Z,14.20
2018-07-19T02:00:32.165Z,14.20
2018-07-19T02:03:03.113Z,14.10
2018-07-19T02:05:33.460Z,14.10
2018-07-19T02:08:03.706Z,14.10
2018-07-19T02:10:34.305Z,14.10
2018-07-19T02:13:04.543Z,14.10
2018-07-19T02:15:35.138Z,14.10
2018-07-19T02:18:06.180Z,14.10
2018-07-19T02:20:36.699Z,14.00
2018-07-19T02:23:07.320Z,14.00
2018-07-19T02:25:37.611Z,14.00
2018-07-19T02:28:07.924Z,14.00
2018-07-19T02:30:38.608Z,14.00
2018-07-19T02:33:09.263Z,14.00
2018-07-19T02:35:40.246Z,14.00
2018-07-19T02:38:10.577Z,14.00
2018-07-19T02:40:41.533Z,14.00
2018-07-19T02:43:13.045Z,13.90
2018-07-19T02:45:43.980Z,13.80
2018-07-19T02:48:14.134Z,13.80
2018-07-19T02:50:44.384Z,13.80
2018-07-19T02:53:14.684Z,13.70
2018-07-19T02:55:45.630Z,13.70
2018-07-19T02:58:16.144Z,13.80
2018-07-19T03:00:46.431Z,13.70
2018-07-19T03:03:16.769Z,13.70
2018-07-19T03:05:46.986Z,13.70
2018-07-19T03:08:17.128Z,13.70
2018-07-19T03:10:47.657Z,13.70
2018-07-19T03:13:17.950Z,13.60
2018-07-19T03:15:48.523Z,13.60
2018-07-19T03:18:18.739Z,13.60
2018-07-19T03:20:49.223Z,13.50
2018-07-19T03:23:19.282Z,13.50
2018-07-19T03:25:49.787Z,13.50
2018-07-19T03:28:19.982Z,13.40
2018-07-19T03:30:50.268Z,13.50
2018-07-19T03:33:20.619Z,13.40
2018-07-19T03:35:51.330Z,13.50
2018-07-19T03:38:21.727Z,13.40
2018-07-19T03:40:52.817Z,13.40
2018-07-19T03:43:23.168Z,13.40
2018-07-19T03:45:53.489Z,13.30
2018-07-19T03:48:23.764Z,13.30
2018-07-19T03:50:54.136Z,13.30
2018-07-19T03:53:24.451Z,13.30
2018-07-19T03:55:54.801Z,13.40
2018-07-19T03:58:25.826Z,13.40
2018-07-19T04:00:56.054Z,13.40
2018-07-19T04:03:26.455Z,13.30
2018-07-19T04:05:57.148Z,13.40
2018-07-19T04:08:27.853Z,13.50
2018-07-19T04:10:58.253Z,13.50
2018-07-19T04:13:28.783Z,13.60
2018-07-19T04:15:59.888Z,13.60
2018-07-19T04:18:30.660Z,13.70
2018-07-19T04:21:01.882Z,13.70
2018-07-19T04:23:32.750Z,13.70
2018-07-19T04:26:03.504Z,13.80
2018-07-19T04:28:33.877Z,13.80
2018-07-19T04:31:04.703Z,13.90
2018-07-19T04:33:35.076Z,13.90
2018-07-19T04:36:05.679Z,14.00
2018-07-19T04:38:36.329Z,14.00
2018-07-19T04:41:06.758Z,14.10
2018-07-19T04:43:37.920Z,14.10
2018-07-19T04:46:08.250Z,14.20
2018-07-19T04:48:38.834Z,14.20
2018-07-19T04:51:09.140Z,14.30
2018-07-19T04:53:39.885Z,14.40
2018-07-19T04:56:09.956Z,14.50
2018-07-19T04:58:40.284Z,14.70
2018-07-19T05:01:10.561Z,14.90
2018-07-19T05:03:40.754Z,15.00
2018-07-19T05:06:11.306Z,15.20
2018-07-19T05:08:41.505Z,15.50
2018-07-19T05:11:11.854Z,15.70
2018-07-19T05:13:42.782Z,15.90
2018-07-19T05:16:13.659Z,16.20
2018-07-19T05:18:44.084Z,16.50
2018-07-19T05:21:14.823Z,16.80
2018-07-19T05:23:46.113Z,17.20
2018-07-19T05:26:17.232Z,17.70
2018-07-19T05:28:48.253Z,18.20
2018-07-19T05:31:18.848Z,18.50
2018-07-19T05:33:50.288Z,18.90
2018-07-19T05:36:21.042Z,19.20
2018-07-19T05:38:52.137Z,19.50
2018-07-19T05:41:22.984Z,19.80
2018-07-19T05:43:54.739Z,20.10
2018-07-19T05:46:25.565Z,20.30
2018-07-19T05:48:56.811Z,20.70
2018-07-19T05:51:27.590Z,20.90
2018-07-19T05:53:58.439Z,21.20
2018-07-19T05:56:29.151Z,21.30
2018-07-19T05:58:59.930Z,21.30
2018-07-19T06:01:30.494Z,21.50
2018-07-19T06:04:01.725Z,21.80
2018-07-19T06:06:32.455Z,22.00
2018-07-19T06:09:03.344Z,22.20
2018-07-19T06:11:34.084Z,22.30
2018-07-19T06:14:05.441Z,22.30
2018-07-19T06:16:36.340Z,22.40
2018-07-19T06:19:07.578Z,22.40
2018-07-19T06:21:38.385Z,22.30
2018-07-19T06:24:09.498Z,22.20
2018-07-19T06:26:40.030Z,22.20
2018-07-19T06:29:11.123Z,22.20
2018-07-19T06:31:42.019Z,22.20
2018-07-19T06:34:12.956Z,22.30
2018-07-19T06:36:43.872Z,22.40
2018-07-19T06:39:14.758Z,22.40
2018-07-19T06:41:46.752Z,22.50
2018-07-19T06:44:17.019Z,22.60
2018-07-19T06:46:47.907Z,22.60
2018-07-19T06:49:18.574Z,22.70
2018-07-19T06:51:49.666Z,23.00
2018-07-19T06:54:20.440Z,23.10
2018-07-19T06:56:51.263Z,23.20
2018-07-19T06:59:22.788Z,23.40
2018-07-19T07:01:54.116Z,23.40
2018-07-19T07:04:24.829Z,23.60
2018-07-19T07:06:55.891Z,23.60
2018-07-19T07:09:27.582Z,23.70
2018-07-19T07:11:58.186Z,23.80
2018-07-19T07:14:29.253Z,23.90
2018-07-19T07:16:59.983Z,23.90
2018-07-19T07:19:30.733Z,24.00
2018-07-19T07:22:01.802Z,23.90
2018-07-19T07:24:33.106Z,24.00
2018-07-19T07:27:03.940Z,24.10
2018-07-19T07:29:34.721Z,24.10
2018-07-19T07:32:05.602Z,24.30
2018-07-19T07:34:36.377Z,24.40
2018-07-19T07:37:07.465Z,24.40
2018-07-19T07:39:38.242Z,24.40
2018-07-19T07:42:09.558Z,24.40
2018-07-19T07:44:40.309Z,24.20
2018-07-19T07:47:11.186Z,24.10
2018-07-19T07:49:41.898Z,24.20
2018-07-19T07:52:12.762Z,24.40
2018-07-19T07:54:43.603Z,24.50
2018-07-19T07:57:14.717Z,24.50
2018-07-19T07:59:45.324Z,24.60
2018-07-19T08:02:16.172Z,24.60
2018-07-19T08:04:46.949Z,24.50
2018-07-19T08:07:17.389Z,24.70
2018-07-19T08:09:48.516Z,24.70
2018-07-19T08:12:19.343Z,24.70
2018-07-19T08:14:50.069Z,24.70
2018-07-19T08:17:21.777Z,24.80
2018-07-19T08:19:52.445Z,24.90
2018-07-19T08:22:27.142Z,24.80
2018-07-19T08:25:02.907Z,24.80
2018-07-19T08:27:34.737Z,24.80
2018-07-19T08:30:06.304Z,24.90
2018-07-19T08:32:37.072Z,25.20
2018-07-19T08:35:07.855Z,25.30
2018-07-19T08:37:39.203Z,25.40
2018-07-19T08:40:10.226Z,25.50
2018-07-19T08:42:40.860Z,25.70
2018-07-19T08:45:12.563Z,25.60
2018-07-19T08:47:43.334Z,25.60
2018-07-19T08:50:14.343Z,25.70
2018-07-19T08:52:46.138Z,25.60
2018-07-19T08:55:17.126Z,25.60
2018-07-19T08:57:48.132Z,25.40
2018-07-19T09:00:18.850Z,25.30
2018-07-19T09:02:49.899Z,25.20
2018-07-19T09:05:20.429Z,25.10
2018-07-19T09:07:51.135Z,25.30
2018-07-19T09:10:22.569Z,25.30
2018-07-19T09:12:53.070Z,25.50
2018-07-19T09:15:23.859Z,25.50
2018-07-19T09:17:54.321Z,25.30
2018-07-19T09:20:25.070Z,25.30
2018-07-19T09:22:55.786Z,25.30
2018-07-19T09:25:26.885Z,25.20
2018-07-19T09:27:57.183Z,25.30
2018-07-19T09:30:31.977Z,25.50
2018-07-19T09:33:02.903Z,25.60
2018-07-19T09:35:33.620Z,25.60
2018-07-19T09:38:04.691Z,25.50
2018-07-19T09:40:36.121Z,25.60
2018-07-19T09:43:07.111Z,25.60
2018-07-19T09:45:37.793Z,25.60
2018-07-19T09:48:08.521Z,25.80
2018-07-19T09:50:39.785Z,25.90
2018-07-19T09:53:10.582Z,25.80
2018-07-19T09:55:41.154Z,25.60
2018-07-19T09:58:12.245Z,25.60
2018-07-19T10:00:48.155Z,25.60
2018-07-19T10:03:18.670Z,25.90
2018-07-19T10:05:49.476Z,26.00
2018-07-19T10:08:20.980Z,26.20
2018-07-19T10:10:51.557Z,26.50
2018-07-19T10:13:22.267Z,26.60
2018-07-19T10:15:53.044Z,26.60
2018-07-19T10:18:24.341Z,26.30
2018-07-19T10:20:55.126Z,26.30
2018-07-19T10:23:25.984Z,26.60
2018-07-19T10:25:56.678Z,26.60
2018-07-19T10:28:27.379Z,26.60
2018-07-19T10:30:58.250Z,26.80
2018-07-19T10:33:28.689Z,27.00
2018-07-19T10:35:59.869Z,27.00
2018-07-19T10:38:30.599Z,27.00
2018-07-19T10:41:02.730Z,26.80
2018-07-19T10:43:33.781Z,26.50
2018-07-19T10:46:05.851Z,26.60
2018-07-19T10:48:36.524Z,26.60
2018-07-19T10:51:07.615Z,26.50
2018-07-19T10:53:38.278Z,26.80
2018-07-19T10:56:09.190Z,27.00
2018-07-19T10:58:40.030Z,27.10
2018-07-19T11:03:41.562Z,27.10
2018-07-19T11:06:12.131Z,27.10
2018-07-19T11:08:42.372Z,27.00
2018-07-19T11:11:13.261Z,27.00
2018-07-19T11:13:43.880Z,27.30
2018-07-19T11:16:14.271Z,27.30
2018-07-19T11:18:44.769Z,27.10
2018-07-19T11:21:15.020Z,27.10
2018-07-19T11:23:45.255Z,27.20
2018-07-19T11:26:15.500Z,27.20
2018-07-19T11:28:45.929Z,27.20
2018-07-19T11:31:16.347Z,27.10
2018-07-19T11:33:46.746Z,27.10
2018-07-19T11:36:17.655Z,27.20
2018-07-19T11:38:48.222Z,27.40
2018-07-19T11:41:18.474Z,27.20
2018-07-19T11:43:48.841Z,27.30
2018-07-19T11:46:19.146Z,27.20
2018-07-19T11:48:49.385Z,27.30
2018-07-19T11:51:20.091Z,27.30
2018-07-19T11:53:50.302Z,27.50
2018-07-19T11:56:21.003Z,27.70
2018-07-19T11:58:51.483Z,27.90
2018-07-19T12:01:22.152Z,27.80
2018-07-19T12:03:52.614Z,27.70
2018-07-19T12:06:23.209Z,27.60
2018-07-19T12:08:53.870Z,27.60
2018-07-19T12:11:24.282Z,27.70
2018-07-19T12:13:54.686Z,27.70
2018-07-19T12:16:25.568Z,27.60
2018-07-19T12:18:56.121Z,27.70
2018-07-19T12:21:26.559Z,27.70
2018-07-19T12:23:56.778Z,27.90
2018-07-19T12:26:27.098Z,28.10
2018-07-19T12:28:57.485Z,28.10
2018-07-19T12:31:27.856Z,28.10
2018-07-19T12:33:58.355Z,28.10
2018-07-19T12:36:28.932Z,28.00
2018-07-19T12:38:59.155Z,27.90
2018-07-19T12:41:29.868Z,27.90
2018-07-19T12:44:00.723Z,27.50
2018-07-19T12:46:31.710Z,27.40
2018-07-19T12:49:02.303Z,27.20
2018-07-19T12:51:33.162Z,27.20
2018-07-19T12:54:03.502Z,27.30
2018-07-19T12:56:34.115Z,27.30
2018-07-19T12:59:04.721Z,27.40
2018-07-19T13:01:35.687Z,27.40
2018-07-19T13:04:07.220Z,27.20
2018-07-19T13:06:37.748Z,27.20
2018-07-19T13:09:09.338Z,27.40
2018-07-19T13:11:40.936Z,27.50
2018-07-19T13:14:11.977Z,27.50
2018-07-19T13:16:43.595Z,27.10
2018-07-19T13:19:14.069Z,26.80
2018-07-19T13:21:45.128Z,26.70
2018-07-19T13:24:16.177Z,26.50
2018-07-19T13:26:46.785Z,26.50
2018-07-19T13:29:17.524Z,26.60
2018-07-19T13:31:48.243Z,26.80
2018-07-19T13:34:18.848Z,26.90
2018-07-19T13:36:49.991Z,27.00
2018-07-19T13:39:20.892Z,26.90
2018-07-19T13:41:51.514Z,27.00
2018-07-19T13:44:22.456Z,27.20
2018-07-19T13:46:52.963Z,27.30
2018-07-19T13:49:23.592Z,27.00
2018-07-19T13:51:54.182Z,26.60
2018-07-19T13:54:48.228Z,26.20
2018-07-19T13:57:18.740Z,25.90
2018-07-19T13:59:49.530Z,26.10
2018-07-19T14:02:20.356Z,26.20
2018-07-19T14:04:50.943Z,26.20
2018-07-19T14:07:21.876Z,26.30
2018-07-19T14:09:52.715Z,26.40
2018-07-19T14:12:23.424Z,26.60
2018-07-19T14:14:54.010Z,26.60
2018-07-19T14:17:25.123Z,26.70
2018-07-19T14:19:55.803Z,27.00
2018-07-19T14:22:26.971Z,27.20
2018-07-19T14:24:57.962Z,27.30
2018-07-19T14:27:29.030Z,27.30
2018-07-19T14:29:59.784Z,27.00
2018-07-19T14:32:30.394Z,27.00
2018-07-19T14:35:01.271Z,27.00
2018-07-19T14:37:32.778Z,27.10
2018-07-19T14:40:03.447Z,27.00
2018-07-19T14:42:34.268Z,27.00
2018-07-19T14:45:04.600Z,27.00
2018-07-19T14:47:36.201Z,27.00
2018-07-19T14:50:07.184Z,27.00
2018-07-19T14:52:37.762Z,27.10
2018-07-19T14:55:08.650Z,27.00
2018-07-19T14:57:39.270Z,26.90
2018-07-19T15:00:11.646Z,26.80
2018-07-19T15:02:42.332Z,26.90
2018-07-19T15:05:12.922Z,27.00
2018-07-19T15:07:43.576Z,27.00
2018-07-19T15:10:15.970Z,27.10
2018-07-19T15:12:47.201Z,27.00
2018-07-19T15:15:18.152Z,27.00
2018-07-19T15:17:51.642Z,27.10
2018-07-19T15:20:22.518Z,27.20
2018-07-19T15:22:52.834Z,27.20
2018-07-19T15:25:23.831Z,27.30
2018-07-19T15:27:54.239Z,27.30
2018-07-19T15:30:24.603Z,27.20
2018-07-19T15:32:55.000Z,27.30
2018-07-19T15:35:25.829Z,27.40
2018-07-19T15:37:56.501Z,27.20
2018-07-19T15:40:27.116Z,27.00
2018-07-19T15:42:57.569Z,26.60
2018-07-19T15:45:28.392Z,26.60
2018-07-19T15:47:59.041Z,26.50
2018-07-19T15:50:29.703Z,26.50
2018-07-19T15:53:00.815Z,26.50
2018-07-19T15:55:32.029Z,26.50
2018-07-19T15:58:03.263Z,26.40
2018-07-19T16:00:33.971Z,26.30
2018-07-19T16:03:05.388Z,26.40
2018-07-19T16:05:36.458Z,26.40
2018-07-19T16:08:07.058Z,26.40
2018-07-19T16:10:37.995Z,26.30
2018-07-19T16:13:08.580Z,26.40
2018-07-19T16:15:39.153Z,26.20
2018-07-19T16:18:10.772Z,26.00
2018-07-19T16:20:41.963Z,25.80
2018-07-19T16:23:12.467Z,25.80
2018-07-19T16:25:43.036Z,25.60
2018-07-19T16:28:13.872Z,25.40
2018-07-19T16:30:44.481Z,25.30
2018-07-19T16:33:15.158Z,25.40
2018-07-19T16:35:46.295Z,25.50
2018-07-19T16:38:16.911Z,25.40
2018-07-19T16:40:47.938Z,25.50
2018-07-19T16:43:18.502Z,25.80
2018-07-19T16:45:49.169Z,26.10
2018-07-19T16:48:19.997Z,26.20
2018-07-19T16:50:50.912Z,26.40
2018-07-19T16:53:21.671Z,26.40
2018-07-19T16:55:52.216Z,26.20
2018-07-19T16:58:23.149Z,25.90
2018-07-19T17:00:54.543Z,25.80
2018-07-19T17:03:25.407Z,25.80
2018-07-19T17:05:56.033Z,25.80
2018-07-19T17:08:26.713Z,25.70
2018-07-19T17:10:57.353Z,25.30
2018-07-19T17:13:27.932Z,24.90
2018-07-19T17:15:58.745Z,24.70
2018-07-19T17:18:29.911Z,24.40
2018-07-19T17:21:00.382Z,24.00
2018-07-19T17:23:31.093Z,23.70
2018-07-19T17:26:01.914Z,23.50
2018-07-19T17:28:32.478Z,23.30
2018-07-19T17:31:03.348Z,23.20
2018-07-19T17:33:34.240Z,23.10
2018-07-19T17:36:04.920Z,23.10
2018-07-19T17:38:35.569Z,23.10
2018-07-19T17:41:06.576Z,23.10
2018-07-19T17:43:37.372Z,23.10
2018-07-19T17:46:08.202Z,23.10
2018-07-19T17:48:39.187Z,23.00
2018-07-19T17:51:09.918Z,22.80
2018-07-19T17:53:40.666Z,22.70
2018-07-19T17:56:11.334Z,22.70
2018-07-19T17:58:42.212Z,22.60
2018-07-19T18:01:12.860Z,22.50
2018-07-19T18:03:43.502Z,22.50
2018-07-19T18:06:14.703Z,22.50
2018-07-19T18:08:45.633Z,22.50
2018-07-19T18:11:16.543Z,22.50
2018-07-19T18:13:47.500Z,22.50
2018-07-19T18:16:18.821Z,22.40
2018-07-19T18:18:49.595Z,22.30
2018-07-19T18:21:20.340Z,22.30
2018-07-19T18:23:51.129Z,22.20
2018-07-19T18:26:21.989Z,22.10
2018-07-19T18:28:52.692Z,21.90
2018-07-19T18:31:23.443Z,21.80
2018-07-19T18:33:54.066Z,21.70
2018-07-19T18:36:24.835Z,21.60
2018-07-19T18:38:55.414Z,21.30
2018-07-19T18:41:26.149Z,21.30
2018-07-19T18:43:56.905Z,21.20
2018-07-19T18:46:27.599Z,21.10
2018-07-19T18:48:58.915Z,20.90
2018-07-19T18:51:29.909Z,20.70
2018-07-19T18:54:01.134Z,20.50
2018-07-19T18:56:32.175Z,20.30
2018-07-19T18:59:03.585Z,20.10
2018-07-19T19:01:34.460Z,19.90
2018-07-19T19:04:05.515Z,19.80
2018-07-19T19:06:37.003Z,19.60
2018-07-19T19:09:10.597Z,19.50
2018-07-19T19:11:42.306Z,19.30
2018-07-19T19:14:13.613Z,19.10
2018-07-19T19:16:44.627Z,19.00
2018-07-19T19:19:15.486Z,18.80
2018-07-19T19:21:46.299Z,18.70
2018-07-19T19:24:17.586Z,18.60
2018-07-19T19:26:48.765Z,18.50
2018-07-19T19:29:19.896Z,18.40
2018-07-19T19:31:50.764Z,18.30
2018-07-19T19:34:21.905Z,18.10
2018-07-19T19:36:53.505Z,18.00
2018-07-19T19:39:24.562Z,18.00
2018-07-19T19:41:55.536Z,17.90
2018-07-19T19:44:26.284Z,17.90
2018-07-19T19:46:57.618Z,17.90
2018-07-19T19:49:28.520Z,17.90
2018-07-19T19:51:59.240Z,17.90
2018-07-19T19:54:30.182Z,17.90
2018-07-19T19:57:01.297Z,17.80
2018-07-19T19:59:31.871Z,17.80
2018-07-19T20:02:02.490Z,17.80
2018-07-19T20:04:33.390Z,17.70
2018-07-19T20:07:04.748Z,17.80
2018-07-19T20:09:35.641Z,17.80
2018-07-19T20:12:07.111Z,17.80
2018-07-19T20:14:37.941Z,17.80
2018-07-19T20:17:08.963Z,17.80
2018-07-19T20:19:40.139Z,17.70
2018-07-19T20:22:11.015Z,17.70
2018-07-19T20:24:42.307Z,17.60
2018-07-19T20:27:13.201Z,17.60
2018-07-19T20:29:43.974Z,17.60
2018-07-19T20:32:15.109Z,17.70
2018-07-19T20:34:45.628Z,17.70
2018-07-19T20:37:16.575Z,17.60
2018-07-19T20:39:48.439Z,17.60
2018-07-19T20:42:18.600Z,17.60
2018-07-19T20:44:49.370Z,17.50
2018-07-19T20:47:20.184Z,17.40
2018-07-19T20:49:51.318Z,17.50
2018-07-19T20:52:22.171Z,17.40
2018-07-19T20:54:53.079Z,17.50
2018-07-19T20:57:24.090Z,17.50
2018-07-19T20:59:55.254Z,17.70
2018-07-19T21:02:26.323Z,17.70
2018-07-19T21:04:57.170Z,17.70
2018-07-19T21:07:27.843Z,17.70
2018-07-19T21:09:59.065Z,17.70
2018-07-19T21:12:30.030Z,17.70
2018-07-19T21:15:00.907Z,17.70
2018-07-19T21:17:31.533Z,17.70
2018-07-19T21:20:02.374Z,17.60
2018-07-19T21:22:33.202Z,17.60
2018-07-19T21:25:04.098Z,17.60
2018-07-19T21:27:34.812Z,17.70
2018-07-19T21:30:06.953Z,17.70
2018-07-19T21:32:37.584Z,17.80
2018-07-19T21:35:08.584Z,17.80
2018-07-19T21:37:39.339Z,17.90
2018-07-19T21:40:10.102Z,17.90
2018-07-19T21:42:42.245Z,18.10
2018-07-19T21:45:13.066Z,18.10
2018-07-19T21:47:44.209Z,18.20
2018-07-19T21:50:15.087Z,18.20
2018-07-19T21:52:45.699Z,18.20
2018-07-19T21:55:16.625Z,18.30
2018-07-19T21:57:47.323Z,18.20
2018-07-19T22:00:18.484Z,18.30
2018-07-19T22:02:49.778Z,18.30
2018-07-19T22:05:20.722Z,18.30
2018-07-19T22:07:51.904Z,18.30
2018-07-19T22:10:22.610Z,18.20
2018-07-19T22:12:53.745Z,18.10
2018-07-19T22:15:24.709Z,18.10
2018-07-19T22:17:55.553Z,18.10
2018-07-19T22:20:26.284Z,18.10
2018-07-19T22:22:56.921Z,18.10
2018-07-19T22:25:28.781Z,18.10
2018-07-19T22:27:59.766Z,18.10
2018-07-19T22:30:30.639Z,18.20
2018-07-19T22:33:01.403Z,18.20
2018-07-19T22:35:32.530Z,18.30
2018-07-19T22:38:03.158Z,18.30
2018-07-19T22:40:33.983Z,18.30
2018-07-19T22:43:04.714Z,18.30
2018-07-19T22:45:35.391Z,18.20
2018-07-19T22:48:06.253Z,18.20
2018-07-19T22:50:36.841Z,18.20
2018-07-19T22:53:07.785Z,18.10
2018-07-19T22:55:38.805Z,18.00
2018-07-19T22:58:09.443Z,17.90
2018-07-19T23:00:40.625Z,17.90
2018-07-19T23:03:11.707Z,17.80
2018-07-19T23:05:42.531Z,17.70
2018-07-19T23:08:13.382Z,17.70
2018-07-19T23:10:43.985Z,17.60
2018-07-19T23:13:14.547Z,17.50
2018-07-19T23:15:45.680Z,17.50
2018-07-19T23:18:16.285Z,17.40
2018-07-19T23:20:47.449Z,17.30
2018-07-19T23:23:17.794Z,17.30
2018-07-19T23:25:49.421Z,17.30
2018-07-19T23:28:19.858Z,17.30
2018-07-19T23:30:50.693Z,17.20
2018-07-19T23:33:20.917Z,17.10
2018-07-19T23:36:01.405Z,17.10
2018-07-19T23:38:37.555Z,17.10
2018-07-19T23:41:12.756Z,17.10
2018-07-19T23:43:46.951Z,17.00
2018-07-19T23:46:26.967Z,17.00
2018-07-19T23:49:01.594Z,17.10
2018-07-19T23:51:31.711Z,17.00
2018-07-19T23:54:02.064Z,17.00
2018-07-19T23:56:32.358Z,17.00
2018-07-19T23:59:02.370Z,16.90
